Time;durP1;ratioP1;P1;durP2;ratioP2;P2;SDS_P1;SDS_P2;PMS_P1;PMS_P2;Temp;Humidity;BMP_temperature;BMP_pressure;BME280_temperature;BME280_humidity;BME280_pressure;Samples;Min_cycle;Max_cycle;Signal;HPM_P1;HPM_P2
2022/10/09 00:01:03;;;;;;;;;;;;;;;19.36;74.21;97350.33;596291;238;66929;-71
2022/10/09 00:03:31;;;;;;;;;;;;;;;19.35;74.27;97342.59;596283;238;66661;-71
2022/10/09 00:05:59;;;;;;;;;;;;;;;19.36;74.68;97338.86;596261;238;64860;-71
2022/10/09 00:08:26;;;;;;;;;;;;;;;19.36;74.04;97337.00;596273;238;64430;-71
2022/10/09 00:10:54;;;;;;;;;;;;;;;19.36;73.96;97341.53;596230;238;66930;-71
2022/10/09 00:13:21;;;;;;;;;;;;;;;19.35;74.28;97343.39;596312;238;65141;-72
2022/10/09 00:15:49;;;;;;;;;;;;;;;19.36;74.10;97344.20;596247;235;66783;-71
2022/10/09 00:18:17;;;;;;;;;;;;;;;19.36;74.46;97346.86;596293;238;66341;-71
2022/10/09 00:20:46;;;;;;;;;;;;;;;19.35;73.74;97340.73;596300;238;65122;-72
2022/10/09 00:23:16;;;;;;;;;;;;;;;19.36;74.34;97344.20;596280;238;66714;-72
2022/10/09 00:25:52;;;;;;;;;;;;;;;19.34;73.29;97336.44;596267;238;64657;-72
2022/10/09 00:28:21;;;;;;;;;;;;;;;19.36;74.61;97333.53;596345;238;64921;-72
2022/10/09 00:30:49;;;;;;;;;;;;;;;19.35;73.87;97337.27;596282;238;67354;-72
2022/10/09 00:33:16;;;;;;;;;;;;;;;19.35;74.35;97331.94;596295;238;66623;-72
2022/10/09 00:35:44;;;;;;;;;;;;;;;19.35;74.46;97334.60;596269;238;64877;-72
2022/10/09 00:38:11;;;;;;;;;;;;;;;19.34;74.21;97335.64;596281;238;64721;-72
2022/10/09 00:40:39;;;;;;;;;;;;;;;19.34;74.20;97330.31;596175;232;66709;-72
2022/10/09 00:43:08;;;;;;;;;;;;;;;19.34;74.46;97335.64;593187;239;66026;-72
2022/10/09 00:45:36;;;;;;;;;;;;;;;19.33;74.15;97326.84;592812;239;66521;-72
2022/10/09 00:48:04;;;;;;;;;;;;;;;19.35;74.35;97331.94;593181;239;66766;-72
2022/10/09 00:50:42;;;;;;;;;;;;;;;19.33;74.29;97328.71;593111;237;65235;-72
2022/10/09 00:53:11;;;;;;;;;;;;;;;19.33;74.05;97328.71;593155;239;67240;-73
2022/10/09 00:55:39;;;;;;;;;;;;;;;19.33;74.53;97326.05;593223;239;66837;-72
2022/10/09 00:58:06;;;;;;;;;;;;;;;19.33;73.30;97323.38;593177;239;64876;-73
2022/10/09 01:00:34;;;;;;;;;;;;;;;19.33;73.58;97318.85;593144;239;66786;-73
2022/10/09 01:03:01;;;;;;;;;;;;;;;19.33;73.97;97318.05;593138;239;67641;-72
2022/10/09 01:05:31;;;;;;;;;;;;;;;19.32;73.39;97311.92;593187;239;62663;-73
2022/10/09 01:08:02;;;;;;;;;;;;;;;19.33;73.92;97315.39;592730;239;64410;-72
2022/10/09 01:10:37;;;;;;;;;;;;;;;19.32;74.48;97322.59;593012;237;66484;-72
2022/10/09 01:13:24;;;;;;;;;;;;;;;19.32;73.97;97325.25;590112;239;62856;-71
2022/10/09 01:15:53;;;;;;;;;;;;;;;19.32;74.16;97322.59;593013;239;65540;-72
2022/10/09 01:18:38;;;;;;;;;;;;;;;19.32;74.06;97327.12;593177;238;65540;-72
2022/10/09 01:21:13;;;;;;;;;;;;;;;19.32;74.19;97333.24;593167;239;66048;-70
2022/10/09 01:23:48;;;;;;;;;;;;;;;19.30;74.42;97330.81;593045;239;66798;-72
2022/10/09 01:26:34;;;;;;;;;;;;;;;19.32;74.25;97324.45;593095;239;66915;-70
2022/10/09 01:29:03;;;;;;;;;;;;;;;19.30;74.27;97328.16;593171;239;65174;-71
2022/10/09 01:31:32;;;;;;;;;;;;;;;19.30;74.61;97336.15;593130;239;64544;-73
2022/10/09 01:34:00;;;;;;;;;;;;;;;19.30;73.65;97330.02;593172;239;66366;-72
2022/10/09 01:36:30;;;;;;;;;;;;;;;19.30;74.59;97333.48;593157;239;65068;-71
2022/10/09 01:38:59;;;;;;;;;;;;;;;19.30;74.54;97333.48;593149;239;64533;-71
2022/10/09 01:41:26;;;;;;;;;;;;;;;19.30;74.63;97333.48;594235;236;66894;-71
2022/10/09 01:43:55;;;;;;;;;;;;;;;19.30;74.32;97330.81;596268;238;65129;-71
2022/10/09 01:46:26;;;;;;;;;;;;;;;19.28;74.15;97327.59;596285;238;64653;-72
2022/10/09 01:49:05;;;;;;;;;;;;;;;19.28;74.63;97332.92;596238;238;67820;-72
2022/10/09 01:51:34;;;;;;;;;;;;;;;19.29;74.17;97325.76;596325;238;65212;-72
2022/10/09 01:54:03;;;;;;;;;;;;;;;19.29;74.34;97328.42;596122;238;66770;-72
2022/10/09 01:56:32;;;;;;;;;;;;;;;19.29;73.90;97328.42;596318;238;66286;-72
2022/10/09 01:59:01;;;;;;;;;;;;;;;19.28;73.79;97324.13;596288;236;65592;-72
2022/10/09 02:01:30;;;;;;;;;;;;;;;19.28;74.15;97330.26;596286;238;66211;-72
2022/10/09 02:03:59;;;;;;;;;;;;;;;19.28;74.77;97338.25;596121;238;65277;-72
2022/10/09 02:06:27;;;;;;;;;;;;;;;19.28;73.96;97337.45;596323;238;64979;-72
2022/10/09 02:08:56;;;;;;;;;;;;;;;19.27;74.15;97336.66;596301;238;64587;-72
2022/10/09 02:11:25;;;;;;;;;;;;;;;19.28;74.62;97338.25;596271;238;66499;-72
2022/10/09 02:13:54;;;;;;;;;;;;;;;19.28;73.63;97332.13;596301;238;65474;-72
2022/10/09 02:16:23;;;;;;;;;;;;;;;19.27;74.65;97333.98;596289;238;65299;-72
2022/10/09 02:19:01;;;;;;;;;;;;;;;19.28;74.49;97332.92;595597;238;64276;-72
2022/10/09 02:21:30;;;;;;;;;;;;;;;19.28;74.62;97332.13;596241;235;63825;-72
2022/10/09 02:23:59;;;;;;;;;;;;;;;19.27;74.50;97333.19;596250;238;66808;-72
2022/10/09 02:26:26;;;;;;;;;;;;;;;19.27;73.93;97335.86;596288;235;66661;-73
2022/10/09 02:28:54;;;;;;;;;;;;;;;19.27;74.78;97336.66;596274;238;64903;-73
2022/10/09 02:31:29;;;;;;;;;;;;;;;19.27;74.44;97331.33;596255;238;66981;-73
2022/10/09 02:34:01;;;;;;;;;;;;;;;19.27;75.07;97336.66;596331;238;67554;-74
2022/10/09 02:36:29;;;;;;;;;;;;;;;19.27;74.71;97344.65;596240;238;62832;-73
2022/10/09 02:38:57;;;;;;;;;;;;;;;19.27;74.11;97347.31;596267;238;66862;-73
2022/10/09 02:41:25;;;;;;;;;;;;;;;19.27;73.83;97347.31;595142;238;66644;-73
2022/10/09 02:43:53;;;;;;;;;;;;;;;19.26;74.41;97345.72;593138;239;62711;-73
2022/10/09 02:46:21;;;;;;;;;;;;;;;19.27;74.64;97349.18;593207;239;64576;-73
2022/10/09 02:48:48;;;;;;;;;;;;;;;19.26;74.52;97352.88;593193;239;64293;-73
2022/10/09 02:51:16;;;;;;;;;;;;;;;19.26;73.75;97356.37;593106;239;63012;-73
2022/10/09 02:53:43;;;;;;;;;;;;;;;19.26;74.13;97361.70;593177;239;66824;-73
2022/10/09 02:56:11;;;;;;;;;;;;;;;19.26;74.66;97350.22;593134;239;66950;-73
2022/10/09 02:58:39;;;;;;;;;;;;;;;19.25;73.77;97352.08;593164;239;66053;-73
2022/10/09 03:01:07;;;;;;;;;;;;;;;19.26;74.66;97359.04;593190;239;64558;-73
2022/10/09 03:03:35;;;;;;;;;;;;;;;19.26;74.19;97351.05;593118;239;67697;-73
2022/10/09 03:06:10;;;;;;;;;;;;;;;19.26;74.85;97350.22;593172;239;65158;-73
2022/10/09 03:08:38;;;;;;;;;;;;;;;19.25;74.38;97357.41;593151;239;66975;-72
2022/10/09 03:11:06;;;;;;;;;;;;;;;19.25;74.75;97357.41;593127;239;66676;-71
2022/10/09 03:13:33;;;;;;;;;;;;;;;19.25;74.01;97353.95;593235;239;65132;-72
2022/10/09 03:16:04;;;;;;;;;;;;;;;19.25;74.80;97352.08;593141;239;64280;-71
2022/10/09 03:18:32;;;;;;;;;;;;;;;19.26;74.73;97352.88;593143;239;64411;-71
2022/10/09 03:20:59;;;;;;;;;;;;;;;19.24;74.91;97347.81;593113;239;63786;-71
2022/10/09 03:23:27;;;;;;;;;;;;;;;19.25;74.47;97351.28;593179;239;67176;-72
2022/10/09 03:25:56;;;;;;;;;;;;;;;19.25;74.41;97348.62;593191;239;67617;-71
2022/10/09 03:28:23;;;;;;;;;;;;;;;19.24;74.41;97357.68;593193;239;65108;-72
2022/10/09 03:30:51;;;;;;;;;;;;;;;19.23;74.69;97359.55;593118;238;67818;-72
2022/10/09 03:33:19;;;;;;;;;;;;;;;19.24;74.52;97360.34;593152;239;67494;-72
2022/10/09 03:35:47;;;;;;;;;;;;;;;19.24;75.10;97355.81;593157;237;65023;-72
2022/10/09 03:38:15;;;;;;;;;;;;;;;19.25;74.77;97365.41;593181;239;64322;-72
2022/10/09 03:40:42;;;;;;;;;;;;;;;19.23;74.88;97356.87;593368;238;65568;-72
2022/10/09 03:43:10;;;;;;;;;;;;;;;19.24;75.00;97361.14;596238;235;63835;-72
2022/10/09 03:45:41;;;;;;;;;;;;;;;19.23;75.25;97364.05;596229;238;65555;-72
2022/10/09 03:48:09;;;;;;;;;;;;;;;19.23;74.68;97362.20;596275;238;65526;-71
2022/10/09 03:50:38;;;;;;;;;;;;;;;19.23;74.65;97366.70;596261;238;64952;-71
2022/10/09 03:53:06;;;;;;;;;;;;;;;19.23;74.68;97361.38;596323;238;66931;-71
2022/10/09 03:55:33;;;;;;;;;;;;;;;19.22;73.95;97357.91;596284;238;67437;-73
2022/10/09 03:58:01;;;;;;;;;;;;;;;19.22;74.42;97365.91;596292;238;62742;-74
2022/10/09 04:00:28;;;;;;;;;;;;;;;19.23;74.98;97367.53;596281;238;64631;-73
2022/10/09 04:02:56;;;;;;;;;;;;;;;19.22;74.62;97365.91;596339;238;63893;-73
2022/10/09 04:05:23;;;;;;;;;;;;;;;19.23;74.55;97372.03;596345;235;64863;-71
2022/10/09 04:07:51;;;;;;;;;;;;;;;19.23;74.74;97372.87;596303;238;66736;-71
2022/10/09 04:10:18;;;;;;;;;;;;;;;19.22;74.55;97371.23;596236;238;66863;-71
2022/10/09 04:12:46;;;;;;;;;;;;;;;19.22;74.80;97373.11;596279;238;63012;-71
2022/10/09 04:15:14;;;;;;;;;;;;;;;19.22;74.38;97376.56;596292;238;66962;-71
2022/10/09 04:17:41;;;;;;;;;;;;;;;19.22;74.76;97371.23;596340;238;66673;-71
2022/10/09 04:20:09;;;;;;;;;;;;;;;19.22;74.70;97370.44;596344;236;64944;-73
2022/10/09 04:22:36;;;;;;;;;;;;;;;19.23;74.59;97370.20;596282;238;66799;-73
2022/10/09 04:25:04;;;;;;;;;;;;;;;19.21;74.93;97364.31;596272;238;67445;-72
2022/10/09 04:27:31;;;;;;;;;;;;;;;19.22;74.31;97367.77;596313;238;65165;-71
2022/10/09 04:29:59;;;;;;;;;;;;;;;19.21;74.39;97366.98;596269;238;66736;-71
2022/10/09 04:32:26;;;;;;;;;;;;;;;19.21;74.92;97363.52;596334;238;66892;-70
2022/10/09 04:38:17;;;;;;;;;;;;;;;19.20;74.27;97365.34;596395;238;38903;-71
2022/10/09 04:40:46;;;;;;;;;;;;;;;19.20;74.57;97362.69;595891;235;67594;-72
2022/10/09 04:43:14;;;;;;;;;;;;;;;19.20;74.47;97367.21;592898;239;62820;-72
2022/10/09 04:45:42;;;;;;;;;;;;;;;19.19;74.46;97370.95;593123;239;64828;-71
2022/10/09 04:48:09;;;;;;;;;;;;;;;19.19;74.74;97369.08;593185;239;66739;-72
2022/10/09 04:50:40;;;;;;;;;;;;;;;19.19;74.68;97373.61;593221;239;66049;-72
2022/10/09 04:53:08;;;;;;;;;;;;;;;19.19;74.77;97374.41;593153;239;66976;-71
2022/10/09 04:55:39;;;;;;;;;;;;;;;19.19;74.46;97377.07;593192;239;65637;-72
2022/10/09 04:58:07;;;;;;;;;;;;;;;19.20;75.21;97378.67;593173;239;64899;-72
2022/10/09 05:00:34;;;;;;;;;;;;;;;19.19;74.21;97376.27;593135;239;67713;-72
2022/10/09 05:03:02;;;;;;;;;;;;;;;19.19;74.26;97381.59;593222;239;66781;-72
2022/10/09 05:05:31;;;;;;;;;;;;;;;19.19;74.94;97370.95;593165;239;65101;-73
2022/10/09 05:07:59;;;;;;;;;;;;;;;19.19;74.68;97385.06;593162;239;64812;-72
2022/10/09 05:10:26;;;;;;;;;;;;;;;19.17;74.27;97384.50;593188;239;64654;-72
2022/10/09 05:12:54;;;;;;;;;;;;;;;19.18;74.58;97382.64;593142;239;65064;-72
2022/10/09 05:15:21;;;;;;;;;;;;;;;19.17;74.54;97384.50;593187;239;67706;-72
2022/10/09 05:17:49;;;;;;;;;;;;;;;19.18;74.01;97396.78;593196;239;65262;-73
2022/10/09 05:20:16;;;;;;;;;;;;;;;19.18;74.20;97388.80;593170;239;62898;-72
2022/10/09 05:22:44;;;;;;;;;;;;;;;19.18;74.53;97391.45;593172;239;66830;-73
2022/10/09 05:25:12;;;;;;;;;;;;;;;19.18;74.24;97394.13;593105;239;67275;-73
2022/10/09 05:27:39;;;;;;;;;;;;;;;19.18;74.31;97387.97;593214;237;65085;-73
2022/10/09 05:30:07;;;;;;;;;;;;;;;19.18;74.67;97396.78;593159;239;66796;-73
2022/10/09 05:32:35;;;;;;;;;;;;;;;19.17;73.94;97395.16;593159;237;67590;-73
2022/10/09 05:35:03;;;;;;;;;;;;;;;19.18;74.13;97402.12;593174;239;62900;-73
2022/10/09 05:37:30;;;;;;;;;;;;;;;19.17;74.55;97403.16;593170;239;65566;-73
2022/10/09 05:39:58;;;;;;;;;;;;;;;19.18;74.76;97407.45;593143;238;64386;-73
2022/10/09 05:42:25;;;;;;;;;;;;;;;19.18;74.11;97409.28;593229;238;62806;-73
2022/10/09 05:44:53;;;;;;;;;;;;;;;19.17;74.29;97413.81;593162;239;64484;-73
2022/10/09 05:47:22;;;;;;;;;;;;;;;19.17;73.91;97413.81;593169;239;64720;-73
2022/10/09 05:49:50;;;;;;;;;;;;;;;19.17;73.95;97416.47;593137;238;62863;-73
2022/10/09 05:52:17;;;;;;;;;;;;;;;19.17;73.92;97421.80;593153;239;65916;-73
2022/10/09 05:54:45;;;;;;;;;;;;;;;19.16;74.45;97412.20;593193;239;65498;-73
2022/10/09 05:57:12;;;;;;;;;;;;;;;19.16;74.11;97412.20;593178;239;64859;-73
2022/10/09 05:59:40;;;;;;;;;;;;;;;19.16;74.20;97419.41;593153;237;67723;-73
2022/10/09 06:02:08;;;;;;;;;;;;;;;19.16;74.15;97414.88;593154;239;66674;-73
2022/10/09 06:04:36;;;;;;;;;;;;;;;19.17;74.19;97415.67;593188;239;63205;-73
2022/10/09 06:07:05;;;;;;;;;;;;;;;19.15;73.92;97421.27;593233;239;64217;-73
2022/10/09 06:09:32;;;;;;;;;;;;;;;19.16;74.69;97417.54;593178;239;66352;-73
2022/10/09 06:12:00;;;;;;;;;;;;;;;19.16;74.45;97420.20;593185;239;64722;-73
2022/10/09 06:14:27;;;;;;;;;;;;;;;19.14;73.39;97421.50;593167;239;64521;-73
2022/10/09 06:16:55;;;;;;;;;;;;;;;19.16;73.33;97419.41;593178;239;64312;-73
2022/10/09 06:19:22;;;;;;;;;;;;;;;19.15;73.16;97431.92;593228;239;62830;-73
2022/10/09 06:21:50;;;;;;;;;;;;;;;19.16;73.95;97428.20;593144;239;64374;-74
2022/10/09 06:24:20;;;;;;;;;;;;;;;19.16;74.07;97436.19;593187;239;67417;-73
2022/10/09 06:26:47;;;;;;;;;;;;;;;19.17;73.98;97427.13;593180;239;63671;-73
2022/10/09 06:29:15;;;;;;;;;;;;;;;19.17;74.44;97434.32;593177;239;67502;-74
2022/10/09 06:31:44;;;;;;;;;;;;;;;19.17;74.27;97427.13;593209;238;66488;-73
2022/10/09 06:34:11;;;;;;;;;;;;;;;19.17;74.58;97429.80;593167;239;62899;-73
2022/10/09 06:36:40;;;;;;;;;;;;;;;19.17;74.40;97437.79;593139;239;66827;-73
2022/10/09 06:39:10;;;;;;;;;;;;;;;19.18;74.30;97433.26;593146;239;66889;-73
2022/10/09 06:41:37;;;;;;;;;;;;;;;19.17;74.49;97437.79;594491;238;63883;-73
2022/10/09 06:44:07;;;;;;;;;;;;;;;19.17;74.50;97443.11;591951;238;48019;-73
2022/10/09 06:46:36;;;;;;;;;;;;;;;19.17;74.22;97439.66;596284;238;67115;-73
2022/10/09 06:49:04;;;;;;;;;;;;;;;19.17;74.00;97445.78;596269;238;65211;-72
2022/10/09 06:51:32;;;;;;;;;;;;;;;19.18;73.57;97449.24;596246;238;66718;-73
2022/10/09 06:54:00;;;;;;;;;;;;;;;19.18;74.97;97449.24;596272;238;64702;-72
2022/10/09 06:56:29;;;;;;;;;;;;;;;19.17;74.41;97448.45;596294;235;66086;-73
2022/10/09 06:59:01;;;;;;;;;;;;;;;19.18;74.66;97449.24;596278;238;67064;-72
2022/10/09 07:01:30;;;;;;;;;;;;;;;19.18;74.46;97447.41;596106;238;67515;-73
2022/10/09 07:03:59;;;;;;;;;;;;;;;19.19;75.07;97442.88;596231;238;64938;-72
2022/10/09 07:06:28;;;;;;;;;;;;;;;19.18;74.13;97442.08;596274;238;68154;-73
2022/10/09 07:08:59;;;;;;;;;;;;;;;19.18;74.79;97439.42;596282;238;66864;-73
2022/10/09 07:11:28;;;;;;;;;;;;;;;19.18;74.17;97447.41;596242;238;64891;-73
2022/10/09 07:13:58;;;;;;;;;;;;;;;19.17;74.51;97448.45;596319;238;66840;-73
2022/10/09 07:16:27;;;;;;;;;;;;;;;19.18;74.77;97444.75;596265;238;66844;-73
2022/10/09 07:18:54;;;;;;;;;;;;;;;19.18;74.61;97447.41;596278;238;62853;-73
2022/10/09 07:21:27;;;;;;;;;;;;;;;19.18;74.62;97458.06;596290;238;67862;-73
2022/10/09 07:23:53;;;;;;;;;;;;;;;19.18;74.39;97447.41;595981;238;66632;-72
2022/10/09 07:26:22;;;;;;;;;;;;;;;19.18;74.49;97450.08;596260;238;63858;-73
2022/10/09 07:28:49;;;;;;;;;;;;;;;19.19;74.65;97459.67;596228;238;66975;-73
2022/10/09 07:31:17;;;;;;;;;;;;;;;19.19;74.50;97462.33;596281;238;66597;-72
2022/10/09 07:33:49;;;;;;;;;;;;;;;19.18;74.61;97460.73;596255;235;65020;-72
2022/10/09 07:36:17;;;;;;;;;;;;;;;19.18;74.32;97462.56;596275;238;64504;-71
2022/10/09 07:38:45;;;;;;;;;;;;;;;19.19;74.33;97456.20;596256;238;64759;-71
2022/10/09 07:41:13;;;;;;;;;;;;;;;19.19;74.66;97456.20;596167;238;64870;-71
2022/10/09 07:43:41;;;;;;;;;;;;;;;19.18;74.11;97452.73;596265;238;64636;-72
2022/10/09 07:46:13;;;;;;;;;;;;;;;19.19;74.78;97457.00;596273;238;66524;-71
2022/10/09 07:48:41;;;;;;;;;;;;;;;19.19;74.37;97451.67;596271;238;62831;-73
2022/10/09 07:51:11;;;;;;;;;;;;;;;19.19;74.94;97462.33;596247;238;66972;-72
2022/10/09 07:53:38;;;;;;;;;;;;;;;19.18;73.96;97449.24;596239;238;64899;-72
2022/10/09 07:56:06;;;;;;;;;;;;;;;19.20;74.15;97449.81;596279;238;64724;-72
2022/10/09 07:58:34;;;;;;;;;;;;;;;19.18;74.32;97442.08;596253;238;64652;-72
2022/10/09 08:01:06;;;;;;;;;;;;;;;19.19;74.48;97442.88;596275;238;64600;-73
2022/10/09 08:03:33;;;;;;;;;;;;;;;19.18;74.35;97439.42;596208;236;64877;-72
2022/10/09 08:06:01;;;;;;;;;;;;;;;19.19;74.49;97440.22;596239;238;64649;-72
2022/10/09 08:08:29;;;;;;;;;;;;;;;19.19;74.66;97443.68;596279;238;66708;-72
2022/10/09 08:10:56;;;;;;;;;;;;;;;19.18;74.29;97449.24;596281;238;65124;-71
2022/10/09 08:13:24;;;;;;;;;;;;;;;19.19;74.21;97445.55;596263;238;66564;-74
2022/10/09 08:15:51;;;;;;;;;;;;;;;19.19;74.25;97446.34;596302;238;64654;-73
2022/10/09 08:18:19;;;;;;;;;;;;;;;19.19;74.74;97448.21;596192;238;62848;-73
2022/10/09 08:20:48;;;;;;;;;;;;;;;19.19;73.98;97445.55;596240;238;64957;-71
2022/10/09 08:23:15;;;;;;;;;;;;;;;19.18;73.70;97442.08;595988;238;64650;-73
2022/10/09 08:25:43;;;;;;;;;;;;;;;19.19;74.21;97445.55;596237;238;62809;-74
2022/10/09 08:28:10;;;;;;;;;;;;;;;19.19;73.62;97442.88;596288;238;66641;-72
2022/10/09 08:30:38;;;;;;;;;;;;;;;19.18;74.11;97455.41;596218;238;64624;-73
2022/10/09 08:33:05;;;;;;;;;;;;;;;19.19;74.07;97449.01;596248;238;65042;-71
2022/10/09 08:35:33;;;;;;;;;;;;;;;19.19;74.31;97454.34;596250;238;66727;-71
2022/10/09 08:38:00;;;;;;;;;;;;;;;19.20;74.21;97455.94;596266;237;64389;-71
2022/10/09 08:40:45;;;;;;;;;;;;;;;19.19;73.94;97451.67;596276;238;62779;-70
2022/10/09 08:43:15;;;;;;;;;;;;;;;19.19;74.06;97456.20;596271;238;64373;-72
2022/10/09 08:45:43;;;;;;;;;;;;;;;19.19;74.60;97454.34;596302;238;66733;-72
2022/10/09 08:48:12;;;;;;;;;;;;;;;19.19;74.43;97456.20;596295;238;64871;-72
2022/10/09 08:50:41;;;;;;;;;;;;;;;19.19;74.41;97462.33;596250;238;66844;-72
2022/10/09 08:53:20;;;;;;;;;;;;;;;19.19;74.57;97456.20;596242;236;66607;-72
2022/10/09 08:55:49;;;;;;;;;;;;;;;19.19;74.77;97450.88;596248;235;63810;-73
2022/10/09 08:58:18;;;;;;;;;;;;;;;19.19;74.94;97453.54;596108;238;65634;-73
2022/10/09 09:00:47;;;;;;;;;;;;;;;19.18;74.40;97446.58;596100;238;67310;-73
2022/10/09 09:03:19;;;;;;;;;;;;;;;19.19;74.33;97450.88;596244;236;62947;-73
2022/10/09 09:05:48;;;;;;;;;;;;;;;19.18;74.62;97452.73;596267;238;66759;-73
2022/10/09 09:08:34;;;;;;;;;;;;;;;19.19;74.57;97450.88;594408;238;67695;-73
2022/10/09 09:11:16;;;;;;;;;;;;;;;19.18;74.72;97455.41;596262;238;65046;-72
2022/10/09 09:13:51;;;;;;;;;;;;;;;19.18;75.05;97442.08;596335;238;66784;-72
2022/10/09 09:16:23;;;;;;;;;;;;;;;19.19;73.49;97443.68;596089;238;64628;-72
2022/10/09 09:19:10;;;;;;;;;;;;;;;19.19;74.74;97440.22;596267;238;65989;-72
2022/10/09 09:21:39;;;;;;;;;;;;;;;19.18;75.00;97443.91;596157;235;66842;-72
2022/10/09 09:24:09;;;;;;;;;;;;;;;19.17;75.10;97437.79;596283;238;67525;-73
2022/10/09 09:26:36;;;;;;;;;;;;;;;19.18;74.88;97438.59;594404;238;62804;-72
2022/10/09 09:29:04;;;;;;;;;;;;;;;19.18;75.08;97435.92;596299;238;64528;-73
2022/10/09 09:31:35;;;;;;;;;;;;;;;19.18;74.79;97433.26;596279;238;66844;-73
2022/10/09 09:34:04;;;;;;;;;;;;;;;19.18;74.88;97431.42;596254;238;65189;-73
2022/10/09 09:36:34;;;;;;;;;;;;;;;19.16;74.87;97430.86;596090;238;67081;-72
2022/10/09 09:39:01;;;;;;;;;;;;;;;19.17;74.92;97434.32;596084;238;64606;-72
2022/10/09 09:41:29;;;;;;;;;;;;;;;19.17;74.31;97426.33;595029;238;62833;-72
2022/10/09 09:43:56;;;;;;;;;;;;;;;19.17;75.16;97429.80;593218;239;65524;-72
2022/10/09 09:46:25;;;;;;;;;;;;;;;19.18;75.13;97430.59;593176;237;65499;-72
2022/10/09 09:48:53;;;;;;;;;;;;;;;19.18;74.83;97428.76;593139;239;65672;-72
2022/10/09 09:51:28;;;;;;;;;;;;;;;19.18;75.16;97433.26;593170;239;67731;-72
2022/10/09 09:54:03;;;;;;;;;;;;;;;19.18;75.25;97425.27;593196;239;65500;-72
2022/10/09 09:56:36;;;;;;;;;;;;;;;19.18;74.81;97419.94;593210;239;64815;-72
2022/10/09 09:59:04;;;;;;;;;;;;;;;19.17;74.95;97432.45;593191;239;64663;-72
2022/10/09 10:01:31;;;;;;;;;;;;;;;19.17;74.97;97427.13;593199;239;66671;-72
2022/10/09 10:04:01;;;;;;;;;;;;;;;19.18;74.76;97412.77;593212;239;65148;-72
2022/10/09 10:06:30;;;;;;;;;;;;;;;19.17;75.23;97416.47;593173;238;66894;-72
2022/10/09 10:09:05;;;;;;;;;;;;;;;19.17;74.67;97416.47;593198;239;65490;-72
2022/10/09 10:11:34;;;;;;;;;;;;;;;19.17;74.92;97421.80;593209;239;64995;-72
2022/10/09 10:14:06;;;;;;;;;;;;;;;19.17;75.10;97416.47;593219;239;64671;-72
2022/10/09 10:16:35;;;;;;;;;;;;;;;19.16;74.66;97417.54;593229;237;66138;-72
2022/10/09 10:19:03;;;;;;;;;;;;;;;19.18;75.02;97418.10;593203;238;64883;-72
2022/10/09 10:21:32;;;;;;;;;;;;;;;19.16;75.02;97414.08;593230;239;65296;-72
2022/10/09 10:24:00;;;;;;;;;;;;;;;19.17;74.12;97415.67;592930;239;67531;-72
2022/10/09 10:26:35;;;;;;;;;;;;;;;19.17;74.90;97410.34;593228;239;64991;-72
2022/10/09 10:29:07;;;;;;;;;;;;;;;19.17;74.78;97405.81;593171;239;64207;-72
2022/10/09 10:31:36;;;;;;;;;;;;;;;19.18;74.79;97406.62;593132;239;66127;-72
2022/10/09 10:34:04;;;;;;;;;;;;;;;19.17;75.28;97402.35;593105;239;65949;-72
2022/10/09 10:36:32;;;;;;;;;;;;;;;19.16;74.64;97409.55;593217;237;64792;-72
2022/10/09 10:39:02;;;;;;;;;;;;;;;19.17;74.93;97399.69;593191;239;64529;-72
2022/10/09 10:41:31;;;;;;;;;;;;;;;19.17;74.78;97403.16;593568;235;64908;-72
2022/10/09 10:44:03;;;;;;;;;;;;;;;19.17;74.93;97405.81;596073;235;66641;-72
2022/10/09 10:46:32;;;;;;;;;;;;;;;19.16;74.46;97404.22;596189;238;64472;-72
2022/10/09 10:48:59;;;;;;;;;;;;;;;19.16;74.97;97401.55;596296;238;65079;-72
2022/10/09 10:51:34;;;;;;;;;;;;;;;19.16;74.58;97404.22;596325;238;67670;-72
2022/10/09 10:54:03;;;;;;;;;;;;;;;19.18;74.98;97398.62;596182;238;67653;-72
2022/10/09 10:56:32;;;;;;;;;;;;;;;19.16;74.78;97398.89;596262;235;65309;-72
2022/10/09 10:59:02;;;;;;;;;;;;;;;19.16;74.74;97396.22;596269;236;66829;-72
2022/10/09 11:01:36;;;;;;;;;;;;;;;19.17;74.97;97389.83;596306;238;66621;-72
2022/10/09 11:04:05;;;;;;;;;;;;;;;19.17;74.51;97389.03;596119;238;62791;-72
2022/10/09 11:06:41;;;;;;;;;;;;;;;19.16;74.93;97388.23;595936;238;64500;-72
2022/10/09 11:09:10;;;;;;;;;;;;;;;19.17;74.90;97389.03;596254;238;66747;-73
2022/10/09 11:11:41;;;;;;;;;;;;;;;19.17;75.12;97383.70;596111;236;62745;-72
2022/10/09 11:14:23;;;;;;;;;;;;;;;19.17;75.05;97381.04;596192;238;67071;-72
2022/10/09 11:16:56;;;;;;;;;;;;;;;19.16;74.92;97385.56;596287;238;66679;-72
2022/10/09 11:19:41;;;;;;;;;;;;;;;19.17;74.92;97383.70;596274;235;65809;-72
2022/10/09 11:22:10;;;;;;;;;;;;;;;19.16;75.15;97388.23;596320;238;65536;-74
2022/10/09 11:24:39;;;;;;;;;;;;;;;19.16;75.02;97382.91;596313;238;66472;-73
2022/10/09 11:27:08;;;;;;;;;;;;;;;19.16;74.97;97372.25;596317;238;62966;-73
2022/10/09 11:29:43;;;;;;;;;;;;;;;19.15;74.62;97375.98;596167;238;65531;-73
2022/10/09 11:32:20;;;;;;;;;;;;;;;19.16;75.03;97385.56;596173;238;42849;-73
2022/10/09 11:35:07;;;;;;;;;;;;;;;19.15;74.73;97367.98;596314;238;65666;-73
2022/10/09 11:37:38;;;;;;;;;;;;;;;19.15;75.23;97370.65;596121;238;66848;-72
2022/10/09 11:40:07;;;;;;;;;;;;;;;19.16;75.10;97371.45;596298;238;66973;-72
2022/10/09 11:42:35;;;;;;;;;;;;;;;19.15;75.20;97370.65;593469;238;62714;-72
2022/10/09 11:45:07;;;;;;;;;;;;;;;19.15;74.66;97377.81;593184;238;66879;-73
2022/10/09 11:47:39;;;;;;;;;;;;;;;19.16;74.72;97379.44;593206;239;65499;-72
2022/10/09 11:50:18;;;;;;;;;;;;;;;19.15;74.70;97378.64;593041;239;65245;-72
2022/10/09 11:52:50;;;;;;;;;;;;;;;19.15;74.90;97386.63;593167;239;66695;-72
2022/10/09 11:55:19;;;;;;;;;;;;;;;19.16;74.85;97384.77;593218;239;64982;-72
2022/10/09 11:57:46;;;;;;;;;;;;;;;19.16;74.69;97379.44;593199;239;62743;-72
2022/10/09 12:00:14;;;;;;;;;;;;;;;19.16;74.94;97382.10;593192;239;65242;-72
2022/10/09 12:02:43;;;;;;;;;;;;;;;19.15;74.65;97377.81;593197;239;65470;-73
2022/10/09 12:05:21;;;;;;;;;;;;;;;19.16;74.96;97376.77;593153;239;64914;-73
2022/10/09 12:07:49;;;;;;;;;;;;;;;19.16;75.18;97371.45;591231;239;65063;-73
2022/10/09 12:10:27;;;;;;;;;;;;;;;19.15;75.01;97365.32;593203;239;66798;-72
2022/10/09 12:12:57;;;;;;;;;;;;;;;19.15;75.01;97362.66;593005;239;65977;-72
2022/10/09 12:15:26;;;;;;;;;;;;;;;19.15;75.33;97367.98;593168;239;66909;-72
2022/10/09 12:17:53;;;;;;;;;;;;;;;19.15;74.56;97375.98;592362;239;64544;-72
2022/10/09 12:20:23;;;;;;;;;;;;;;;19.14;74.82;97363.69;593233;239;62849;-72
2022/10/09 12:22:55;;;;;;;;;;;;;;;19.14;74.74;97369.02;593208;237;67681;-72
2022/10/09 12:25:27;;;;;;;;;;;;;;;19.16;75.01;97366.12;593213;238;66721;-73
2022/10/09 12:27:56;;;;;;;;;;;;;;;19.15;74.18;97370.65;593200;238;65124;-73
2022/10/09 12:30:24;;;;;;;;;;;;;;;19.16;74.91;97364.25;593173;238;66798;-73
2022/10/09 12:32:54;;;;;;;;;;;;;;;19.16;74.76;97364.25;593195;239;66681;-74
2022/10/09 12:35:22;;;;;;;;;;;;;;;19.17;74.98;97362.39;593099;239;64891;-73
2022/10/09 12:37:50;;;;;;;;;;;;;;;19.15;74.63;97359.16;593215;239;65535;-74
2022/10/09 12:40:19;;;;;;;;;;;;;;;19.16;74.90;97363.45;593217;239;66865;-73
2022/10/09 12:42:50;;;;;;;;;;;;;;;19.15;74.76;97359.98;595965;238;64944;-73
2022/10/09 12:45:17;;;;;;;;;;;;;;;19.15;74.94;97354.66;596337;236;66896;-73
2022/10/09 12:47:45;;;;;;;;;;;;;;;19.16;75.06;97361.59;596340;238;66246;-73
2022/10/09 12:50:17;;;;;;;;;;;;;;;19.16;75.26;97358.13;596325;238;64997;-74
2022/10/09 12:52:53;;;;;;;;;;;;;;;19.14;74.81;97358.36;596319;238;67013;-73
2022/10/09 12:55:25;;;;;;;;;;;;;;;19.15;74.87;97359.16;596169;238;67122;-72
2022/10/09 12:57:53;;;;;;;;;;;;;;;19.16;74.74;97358.13;596237;238;65272;-73
2022/10/09 13:00:20;;;;;;;;;;;;;;;19.14;74.68;97347.70;596330;238;67103;-73
2022/10/09 13:02:48;;;;;;;;;;;;;;;19.15;74.65;97352.00;596325;238;66736;-73